Pagrindinis puslapis
METAR-TAF:

METAR-TAF

Oro uostai :

Pago Pago, United States Minor Outlying Islands

platuma: 14-20S, ilguma: 170-43W, Aukštis: 3 m

Dabartinis oras

Ataskaita buvo paskelbta 1 valandą ir 8 minutes, ne 03:50 UTC
Vėjas 3 kt nuo kintamojo kryptimis
Temperatūra 26°C
Drėgmė 89%
Slėgis 1013 hPa
Matomumas: 11.3 km
Išsisklaidę debesys ne aukštis 1800 ft, aukštai iškilę kamuoliniai debesys.
Apsiniaukę ne aukštis 10000 ft
lietus

METAR: NSTU 220350Z VRB03KT 7SM -SHRA SCT018TCU OVC100 26/24 A2992 RMK SHRAB36 TCU ALQDS SLP132 T02550242

Laikas: 17:58 (04:58 UTC)

Prognozė

Ataskaita buvo paskelbta 5 valandos ir 38 minutes, ne 23:20 UTC
Prognozė galioja nuo 22 metu 00 UTC su 22 metu 24 UTC
Vėjas 11 kt iš Rytų/Pietryčių
Matomumas: 10 km
Mažai debesys ne aukštis 2000 ft
Nuo 22 metu 0600 UTC
Vėjas 9 kt iš Rytų
Matomumas: 10 km
Mažai debesys ne aukštis 2000 ft
Išsisklaidę debesys ne aukštis 4000 ft
Su prošvaistėmis ne aukštis 10000 ft
Liūtis kaimynystėje

TAF: NSTU 212320Z 2200/2224 12011KT P6SM FEW020 FM220600 10009KT P6SM VCSH FEW020 SCT040 BKN100

Orai ataskaitas ir orų prognozės (METAR, TAF).

turimą stotys yra geltonos ir raudonos taškus žemėlapyje.

Perkelti pele per norėdami pamatyti stoties vardą.

Tada spustelėkite, norėdami matyti oro stebėjimo ir prognozės.

Norėdami pakeisti žemėlapį: spustelėkite ant žalios mygtukų su juodo kryžiaus žemyn,; žalią mygtuką su brūkšneliu, jei norite nutolinti; arba žalių rodyklių gretimoms žemėlapius.


METAR-TAF: